Detall de PIREP

Printer-friendly versionPDF version

[2013/07/13 11:48:00]
Flight IATA:CT1003
Pilot Number:012
Company ICAO:CAT
Aircraft Type:F50/A
PAX:50
Aircraft Registration:PAOB
Departing Airport: LDZA
Destination Airport: LHBP
Alternate Airport:LOWW
Online: VATSIM
Route:RASIN M986 KOPRY Y573 VEBOS
Flight Level:F170
No Slew and time accel
No pause
Crash detect
Detect pilot in Cockpit between each 30 and 45 minutes
11:48 Zero fuel Weight: 37597 Lbs, Fuel Weight: 3544 Lbs
11:48 VATSIM:LDZA 131730Z 14004KT 110V240 CAVOK 24/11 Q1017 NOSIG
11:48 VATSIM:LHBP 131730Z 29011KT CAVOK 22/10 Q1017 NOSIG
11:48 VOICE CATALONIAN / CPT LHBP
12:01 Parking Brakes off
12:04 Take-off
12:04 Take off Weight: 41003 Lbs
12:04 Wind: 168º @ 004 Knots Heading: 046º
12:04 POS N45º 44´ 21´´ E016º 03´ 47´´
12:04 Gear Up: 115 Knots
12:04 Flaps:2 at 115 Knots
12:05 Flaps:1 at 155 Knots
12:05 Flaps:0 at 156 Knots
12:15 TOC
12:15 Fuel Weight: 2968 Lb
12:19 Wind:297º@015 Knots Heading: 044º Ground Speed: 256 Knots Altitude 17129 ft
12:33 TOD
12:33 Fuel Weight: 2470 Lb
12:34 Wind:290º@021 Knots Heading: 043º Ground Speed: 279 Knots Altitude 15383 ft
12:49 Wind:307º@020 Knots Heading: 216º Ground Speed: 253 Knots Altitude 12132 ft
13:04 Wind:290º@011 Knots Heading: 083º Ground Speed: 230 Knots Altitude 3966 ft
13:12 Flaps:1 at 149 Knots
13:13 Flaps:2 at 140 Knots
13:13 Flaps:3 at 121 Knots
13:13 Gear Down: 119 Knots
13:13 Flaps:4 at 105 Knots
13:13 Flaps:5 at 95 Knots
13:13 Flaps:6 at 96 Knots
13:17 TouchDown:Rate -410 ft/min Speed: 92 Knots
13:17 VATSIM:LHBP 131900Z 28007KT CAVOK 20/10 Q1017 NOSIG
13:17 Land
13:17 Wind:286º@010 Knots
13:17 Heading: 316º
13:17 Flight Duration: 01:13
13:17 Landing Weight: 38954 Lbs
13:17 POS N47º 26´ 11´´ E019º 14´ 25´´
13:24 Parking brakes on
13:24 Block toBlock Duration: 01:23
13:24 Final Fuel: 1287 Lbls
13:24 Spent Fuel: 2257 Lbls
13:24 Flight Length: 276 NM
13:24 TOD Land Length: 166 NM

Exportar CSV

Powered by Drupal - Modified by Danger4k